KRAP

Rapid City Regional Airport

Rapid City, South Dakota, USA
METAR KRAP 191452Z 36011KT 10SM CLR 04/M03 A2959 RMK AO2 PK WND 33028/1403 WSHFT 1357 SLP035 T00391033 53012
Observed Flight Rules
Jan-19 @ 14:52 UTC (32 minutes ago) Visual Flight Rules
Wind Visibility Clouds
360° at 11 knots 10 miles
  • Clear skies
Temperatures Readings
Current 4°C / 39°F
Dewpoint -3°C / 27°F
Humidity 61%
Altimeter 29.59" Hg
Pressure 1003.5 hPa
Elevation 965
METAR KRAP 191452Z 36011KT 10SM CLR 04/M03 A2959 RMK AO2 PK WND 33028/1403 WSHFT 1357 SLP035 T00391033 53012
Observed Flight Rules
Jan-19 @ 14:52 UTC
(32 minutes ago)
VFR
Wind Visibility
360° at 11 knots 10 miles
Clouds
  • Clear skies
Temperature Dewpoint
4°C / 39°F -3°C / 27°F
Humidity Altimeter Pressure
61% 29.59" Hg 1003.5 hPa